createdAt,value
2023-04-11T00:00:09.096Z,81.77
2023-04-11T00:02:41.809Z,82.26
2023-04-11T00:08:00.909Z,81.89
2023-04-11T00:10:28.761Z,82.68
2023-04-11T00:12:57.382Z,83.21
2023-04-11T00:15:32.612Z,82.75
2023-04-11T00:18:05.740Z,82.91
2023-04-11T00:20:32.738Z,82.35
2023-04-11T00:23:04.698Z,82.85
2023-04-11T00:25:33.145Z,82.22
2023-04-11T00:28:26.043Z,82.36
2023-04-11T00:30:52.749Z,83.03
2023-04-11T00:33:20.787Z,83.45
2023-04-11T00:35:48.847Z,82.61
2023-04-11T00:38:16.743Z,82.06
2023-04-11T00:40:44.916Z,83.34
2023-04-11T00:43:21.702Z,82.81
2023-04-11T00:45:48.886Z,82.07
2023-04-11T00:51:08.980Z,83.00
2023-04-11T00:53:41.421Z,84.31
2023-04-11T00:56:11.213Z,83.45
2023-04-11T00:58:40.829Z,83.63
2023-04-11T01:01:16.593Z,83.70
2023-04-11T01:03:45.602Z,83.24
2023-04-11T01:06:19.785Z,83.58
2023-04-11T01:08:47.553Z,83.12
2023-04-11T01:14:10.680Z,84.07
2023-04-11T01:16:38.712Z,83.01
2023-04-11T01:19:07.155Z,83.55
2023-04-11T01:24:28.682Z,83.76
2023-04-11T01:27:01.758Z,82.70
2023-04-11T01:29:28.712Z,83.63
2023-04-11T01:32:01.744Z,83.66
2023-04-11T01:34:54.815Z,83.66
2023-04-11T01:37:27.975Z,83.46
2023-04-11T01:39:54.982Z,82.82
2023-04-11T01:45:32.887Z,83.76
2023-04-11T01:48:07.074Z,83.08
2023-04-11T01:50:34.888Z,83.44
2023-04-11T01:53:06.696Z,83.83
2023-04-11T01:55:34.684Z,83.51
2023-04-11T01:58:02.696Z,83.05
2023-04-11T02:00:35.732Z,82.23
2023-04-11T02:03:03.515Z,83.05
2023-04-11T02:05:57.046Z,83.66
2023-04-11T02:08:24.708Z,84.40
2023-04-11T02:14:44.358Z,85.82
2023-04-11T02:23:09.550Z,84.91
2023-04-11T02:25:37.175Z,84.79
2023-04-11T02:30:57.080Z,84.95
2023-04-11T02:33:30.774Z,86.08
2023-04-11T02:35:58.729Z,85.46
2023-04-11T02:38:26.745Z,86.16
2023-04-11T02:41:00.173Z,84.91
2023-04-11T02:43:28.709Z,84.97
2023-04-11T02:46:11.726Z,85.14
2023-04-11T02:48:41.131Z,84.56
2023-04-11T02:51:09.717Z,85.02
2023-04-11T02:54:02.674Z,84.68
2023-04-11T02:56:30.924Z,84.47
2023-04-11T03:01:55.845Z,84.86
2023-04-11T03:04:22.764Z,85.06
2023-04-11T03:07:03.800Z,85.94
2023-04-11T03:09:30.788Z,86.28
2023-04-11T03:11:58.746Z,84.76
2023-04-11T03:14:50.685Z,84.31
2023-04-11T03:17:45.769Z,86.05
2023-04-11T03:21:03.734Z,86.06
2023-04-11T03:23:37.718Z,85.14
2023-04-11T03:26:05.841Z,84.35
2023-04-11T03:28:34.734Z,84.23
2023-04-11T03:31:02.873Z,83.77
2023-04-11T03:33:54.697Z,82.87
2023-04-11T03:36:29.539Z,82.57
2023-04-11T03:39:03.171Z,82.54
2023-04-11T03:41:31.153Z,82.67
2023-04-11T03:43:58.836Z,83.43
2023-04-11T03:46:50.832Z,83.11
2023-04-11T03:49:18.708Z,82.79
2023-04-11T03:51:52.993Z,82.72
2023-04-11T03:54:21.234Z,82.92
2023-04-11T03:57:15.023Z,82.15
2023-04-11T03:59:42.686Z,82.25
2023-04-11T04:02:12.763Z,82.54
2023-04-11T04:04:48.652Z,82.62
2023-04-11T04:07:25.744Z,82.89
2023-04-11T04:09:58.717Z,82.67
2023-04-11T04:12:26.687Z,82.68
2023-04-11T04:21:12.673Z,82.74
2023-04-11T04:23:52.515Z,82.65
2023-04-11T04:26:32.760Z,82.71
2023-04-11T04:29:23.078Z,82.17
2023-04-11T04:35:08.115Z,82.36
2023-04-11T04:37:47.498Z,82.04
2023-04-11T04:40:38.235Z,82.24
2023-04-11T04:43:09.047Z,82.65
2023-04-11T04:45:42.681Z,82.67
2023-04-11T04:48:13.125Z,82.40
2023-04-11T04:50:41.038Z,82.53
2023-04-11T04:53:16.674Z,81.92
2023-04-11T04:56:08.941Z,82.79
2023-04-11T04:59:00.739Z,82.74
2023-04-11T05:04:38.691Z,82.93
2023-04-11T05:07:16.056Z,82.84
2023-04-11T05:09:52.719Z,82.45
2023-04-11T05:12:27.202Z,82.66
2023-04-11T05:15:26.045Z,83.12
2023-04-11T05:17:54.709Z,82.97
2023-04-11T05:20:24.708Z,82.59
2023-04-11T05:22:53.393Z,82.74
2023-04-11T05:25:22.813Z,83.15
2023-04-11T05:27:52.841Z,82.92
2023-04-11T05:30:26.794Z,83.14
2023-04-11T05:33:19.815Z,83.63
2023-04-11T05:36:14.292Z,83.68
2023-04-11T05:38:43.793Z,83.33
2023-04-11T05:47:06.019Z,83.22
2023-04-11T05:49:32.656Z,84.00
2023-04-11T05:52:00.679Z,83.48
2023-04-11T05:54:33.671Z,82.94
2023-04-11T05:57:02.323Z,83.44
2023-04-11T05:59:33.123Z,83.32
2023-04-11T06:02:00.970Z,82.73
2023-04-11T06:04:28.850Z,83.32
2023-04-11T06:07:22.066Z,83.11
2023-04-11T06:09:49.102Z,83.63
2023-04-11T06:12:16.664Z,82.78
2023-04-11T06:14:53.651Z,82.64
2023-04-11T06:17:20.744Z,82.85
2023-04-11T06:19:53.665Z,83.20
2023-04-11T06:22:20.678Z,83.46
2023-04-11T06:24:49.017Z,84.07
2023-04-11T06:27:21.674Z,83.48
2023-04-11T06:29:48.687Z,83.93
2023-04-11T06:32:21.987Z,83.75
2023-04-11T06:34:48.669Z,84.04
2023-04-11T06:37:20.942Z,84.74
2023-04-11T06:39:48.660Z,84.55
2023-04-11T06:42:16.768Z,84.18
2023-04-11T06:44:50.931Z,84.33
2023-04-11T06:50:11.295Z,83.50
2023-04-11T06:52:40.744Z,83.65
2023-04-11T06:55:10.067Z,83.86
2023-04-11T06:57:36.652Z,83.74
2023-04-11T07:00:28.791Z,83.57
2023-04-11T07:03:01.862Z,83.32
2023-04-11T07:05:39.448Z,83.16
2023-04-11T07:08:11.692Z,83.50
2023-04-11T07:10:38.667Z,83.76
2023-04-11T07:13:06.696Z,82.95
2023-04-11T07:16:03.879Z,83.43
2023-04-11T07:18:31.196Z,82.80
2023-04-11T07:20:58.680Z,82.89
2023-04-11T07:23:26.828Z,82.68
2023-04-11T07:25:55.813Z,83.56
2023-04-11T07:28:23.740Z,83.50
2023-04-11T07:30:50.681Z,82.75
2023-04-11T07:33:18.701Z,83.59
2023-04-11T07:38:38.671Z,83.06
2023-04-11T07:41:13.068Z,83.09
2023-04-11T07:43:45.706Z,83.09
2023-04-11T07:46:15.030Z,82.72
2023-04-11T07:48:43.195Z,83.05
2023-04-11T07:51:11.009Z,84.07
2023-04-11T07:53:47.684Z,83.48
2023-04-11T07:56:15.623Z,83.45
2023-04-11T07:58:42.994Z,83.77
2023-04-11T08:01:21.530Z,84.17
2023-04-11T08:03:49.087Z,83.11
2023-04-11T08:06:16.707Z,84.28
2023-04-11T08:08:49.359Z,83.92
2023-04-11T08:11:16.868Z,83.79
2023-04-11T08:13:45.052Z,83.81
2023-04-11T08:16:16.815Z,83.17
2023-04-11T08:18:45.886Z,83.69
2023-04-11T08:21:12.741Z,83.40
2023-04-11T08:23:42.172Z,82.89
2023-04-11T08:26:12.784Z,83.53
2023-04-11T08:28:42.827Z,84.47
2023-04-11T08:31:13.568Z,83.49
2023-04-11T08:33:41.105Z,83.48
2023-04-11T08:36:15.008Z,83.23
2023-04-11T08:38:46.673Z,83.35
2023-04-11T08:41:19.713Z,83.33
2023-04-11T08:43:47.886Z,82.87
2023-04-11T08:46:14.810Z,83.02
2023-04-11T08:48:42.690Z,83.46
2023-04-11T08:51:12.486Z,82.71
2023-04-11T08:53:41.382Z,82.72
2023-04-11T08:56:35.537Z,82.75
2023-04-11T08:59:03.177Z,83.11
2023-04-11T09:01:37.499Z,82.55
2023-04-11T09:04:05.652Z,82.56
2023-04-11T09:06:33.731Z,82.36
2023-04-11T09:09:05.161Z,83.69
2023-04-11T09:11:51.696Z,84.35
2023-04-11T09:14:23.781Z,85.32
2023-04-11T09:16:57.621Z,84.73
2023-04-11T09:19:30.933Z,85.33
2023-04-11T09:22:06.258Z,86.07
2023-04-11T09:27:28.758Z,86.16
2023-04-11T09:29:56.767Z,85.87
2023-04-11T09:32:36.106Z,85.89
2023-04-11T09:35:20.274Z,84.94
2023-04-11T09:40:48.685Z,84.87
2023-04-11T09:43:18.355Z,84.88
2023-04-11T09:45:54.164Z,84.69
2023-04-11T09:48:32.084Z,83.72
2023-04-11T09:51:18.105Z,85.45
2023-04-11T09:54:01.979Z,84.06
2023-04-11T09:56:30.606Z,84.13
2023-04-11T09:59:05.852Z,84.38
2023-04-11T10:01:33.272Z,85.43
2023-04-11T10:04:27.911Z,86.39
2023-04-11T10:07:14.487Z,86.60
2023-04-11T10:09:43.614Z,85.87
2023-04-11T10:12:10.961Z,85.70
2023-04-11T10:14:38.812Z,84.05
2023-04-11T10:17:36.151Z,83.18
2023-04-11T10:20:43.635Z,83.46
2023-04-11T10:23:11.397Z,83.32
2023-04-11T10:26:01.265Z,82.60
2023-04-11T10:28:45.691Z,82.59
2023-04-11T10:31:17.480Z,83.56
2023-04-11T10:34:19.359Z,83.82
2023-04-11T10:37:07.769Z,83.52
2023-04-11T10:42:44.021Z,84.16
2023-04-11T10:45:24.488Z,84.64
2023-04-11T10:48:12.934Z,84.59
2023-04-11T10:50:48.158Z,85.06
2023-04-11T10:53:37.098Z,84.66
2023-04-11T10:56:10.135Z,84.49
2023-04-11T10:58:40.290Z,85.42
2023-04-11T11:01:26.347Z,85.45
2023-04-11T11:04:01.040Z,85.39
2023-04-11T11:09:23.636Z,85.97
2023-04-11T11:15:13.359Z,83.06
2023-04-11T11:17:42.692Z,84.01
2023-04-11T11:20:19.835Z,83.26
2023-04-11T11:23:10.344Z,81.73
2023-04-11T11:25:38.676Z,80.99
2023-04-11T11:28:14.727Z,81.98
2023-04-11T11:31:13.664Z,81.96
2023-04-11T11:33:44.489Z,80.63
2023-04-11T11:36:15.737Z,80.98
2023-04-11T11:38:42.825Z,80.50
2023-04-11T11:41:11.000Z,78.72
2023-04-11T11:43:38.997Z,79.45
2023-04-11T11:46:14.329Z,77.93
2023-04-11T11:48:43.880Z,79.01
2023-04-11T11:51:44.563Z,78.45
2023-04-11T11:54:12.873Z,78.65
2023-04-11T11:56:41.591Z,78.20
2023-04-11T11:59:34.814Z,77.75
2023-04-11T12:02:27.670Z,78.23
2023-04-11T12:05:04.127Z,78.50
2023-04-11T12:07:43.538Z,78.66
2023-04-11T12:10:16.621Z,78.66
2023-04-11T12:12:53.096Z,79.18
2023-04-11T12:15:22.787Z,79.13
2023-04-11T12:17:57.506Z,77.64
2023-04-11T12:20:26.701Z,78.21
2023-04-11T12:22:58.863Z,79.00
2023-04-11T12:25:28.048Z,77.90
2023-04-11T12:27:54.885Z,78.60
2023-04-11T12:30:22.830Z,78.57
2023-04-11T12:32:50.916Z,77.73
2023-04-11T12:35:18.956Z,76.23
2023-04-11T12:37:46.741Z,77.87
2023-04-11T12:40:15.619Z,78.19
2023-04-11T12:46:00.756Z,78.57
2023-04-11T12:48:33.103Z,78.29
2023-04-11T12:51:00.823Z,81.38
2023-04-11T12:53:28.668Z,79.57
2023-04-11T12:55:56.898Z,79.45
2023-04-11T12:58:24.699Z,76.91
2023-04-11T13:00:57.960Z,78.82
2023-04-11T13:03:24.826Z,76.99
2023-04-11T13:05:52.755Z,76.94
2023-04-11T13:08:20.682Z,76.82
2023-04-11T13:10:48.767Z,76.31
2023-04-11T13:13:18.615Z,75.12
2023-04-11T13:15:46.775Z,76.22
2023-04-11T13:18:39.155Z,75.87
2023-04-11T13:21:12.869Z,76.11
2023-04-11T13:23:40.759Z,73.97
2023-04-11T13:26:38.163Z,74.91
2023-04-11T13:29:09.576Z,75.19
2023-04-11T13:34:54.654Z,75.33
2023-04-11T13:40:15.346Z,74.64
2023-04-11T13:42:42.704Z,74.49
2023-04-11T13:45:11.206Z,75.41
2023-04-11T13:47:39.190Z,76.02
2023-04-11T13:50:17.855Z,76.71
2023-04-11T13:52:49.882Z,77.42
2023-04-11T13:55:19.390Z,74.89
2023-04-11T13:57:46.877Z,76.75
2023-04-11T14:00:15.247Z,77.24
2023-04-11T14:02:48.704Z,75.61
2023-04-11T14:05:16.661Z,76.62
2023-04-11T14:07:49.506Z,78.37
2023-04-11T14:10:16.747Z,78.38
2023-04-11T14:12:44.802Z,79.26
2023-04-11T14:15:15.307Z,80.18
2023-04-11T14:17:44.000Z,79.16
2023-04-11T14:23:03.283Z,79.62
2023-04-11T14:26:01.751Z,79.95
2023-04-11T14:28:28.854Z,80.02
2023-04-11T14:31:22.173Z,80.77
2023-04-11T14:33:51.325Z,80.70
2023-04-11T14:36:18.950Z,80.42
2023-04-11T14:38:46.814Z,81.20
2023-04-11T14:41:14.901Z,80.31
2023-04-11T14:43:52.001Z,80.16
2023-04-11T14:46:18.842Z,81.47
2023-04-11T14:48:47.015Z,80.61
2023-04-11T14:51:38.747Z,80.85
2023-04-11T14:54:07.408Z,80.23
2023-04-11T14:56:34.976Z,81.39
2023-04-11T14:59:28.738Z,81.57
2023-04-11T15:01:57.377Z,80.35
2023-04-11T15:04:24.924Z,81.14
2023-04-11T15:06:58.482Z,81.65
2023-04-11T15:09:27.410Z,81.07
2023-04-11T15:11:54.797Z,81.07
2023-04-11T15:14:29.234Z,82.26
2023-04-11T15:16:56.839Z,81.86
2023-04-11T15:19:25.641Z,81.18
2023-04-11T15:21:53.052Z,81.04
2023-04-11T15:24:21.748Z,80.49
2023-04-11T15:26:48.816Z,80.10
2023-04-11T15:29:16.743Z,80.88
2023-04-11T15:31:49.811Z,80.75
2023-04-11T15:34:17.477Z,81.32
2023-04-11T15:36:45.230Z,82.46
2023-04-11T15:39:12.831Z,81.48
2023-04-11T15:47:50.735Z,81.66
2023-04-11T15:50:26.520Z,81.86
2023-04-11T15:52:57.724Z,81.37
2023-04-11T15:58:16.996Z,83.00
2023-04-11T16:00:47.065Z,82.19
2023-04-11T16:03:23.774Z,82.42
2023-04-11T16:08:50.601Z,82.66
2023-04-11T16:11:21.115Z,82.42
2023-04-11T16:13:48.710Z,82.35
2023-04-11T16:16:16.918Z,83.20
2023-04-11T16:18:44.662Z,84.23
2023-04-11T16:21:15.104Z,84.08
2023-04-11T16:26:35.484Z,83.16
2023-04-11T16:29:07.881Z,82.74
2023-04-11T16:31:35.796Z,82.74
2023-04-11T16:34:04.329Z,83.28
2023-04-11T16:36:36.227Z,83.40
2023-04-11T16:39:11.595Z,82.63
2023-04-11T16:41:42.704Z,83.11
2023-04-11T16:44:39.318Z,82.80
2023-04-11T16:47:45.728Z,82.97
2023-04-11T16:53:04.940Z,83.17
2023-04-11T17:01:42.116Z,82.07
2023-04-11T17:04:16.905Z,81.50
2023-04-11T17:06:49.841Z,81.46
2023-04-11T17:09:55.049Z,81.79
2023-04-11T17:12:49.097Z,81.93
2023-04-11T17:15:16.711Z,82.94
2023-04-11T17:17:44.733Z,83.16
2023-04-11T17:20:12.788Z,82.29
2023-04-11T17:22:43.145Z,81.61
2023-04-11T17:25:11.436Z,81.47
2023-04-11T17:27:39.954Z,81.47
2023-04-11T17:30:18.677Z,81.66
2023-04-11T17:33:10.791Z,81.44
2023-04-11T17:35:40.498Z,81.43
2023-04-11T17:38:19.831Z,81.75
2023-04-11T17:40:46.702Z,81.70
2023-04-11T17:43:39.865Z,81.85
2023-04-11T17:46:17.791Z,82.01
2023-04-11T17:48:44.962Z,82.62
2023-04-11T17:51:15.592Z,82.15
2023-04-11T17:53:45.072Z,82.09
2023-04-11T17:56:12.842Z,81.97
2023-04-11T17:58:50.304Z,82.26
2023-04-11T18:01:20.848Z,81.76
2023-04-11T18:03:50.345Z,81.96
2023-04-11T18:06:19.199Z,81.84
2023-04-11T18:08:53.316Z,81.47
2023-04-11T18:11:25.964Z,81.38
2023-04-11T18:13:55.411Z,81.63
2023-04-11T18:16:22.987Z,81.48
2023-04-11T18:18:50.663Z,81.55
2023-04-11T18:21:25.893Z,81.89
2023-04-11T18:23:52.957Z,82.00
2023-04-11T18:26:20.992Z,81.74
2023-04-11T18:28:48.662Z,81.53
2023-04-11T18:31:16.875Z,81.90
2023-04-11T18:34:13.136Z,81.99
2023-04-11T18:36:41.013Z,81.51
2023-04-11T18:39:14.036Z,81.44
2023-04-11T18:41:49.484Z,82.03
2023-04-11T18:44:16.669Z,81.63
2023-04-11T18:46:56.685Z,81.96
2023-04-11T18:49:48.999Z,81.68
2023-04-11T18:52:16.858Z,81.86
2023-04-11T18:54:48.905Z,81.90
2023-04-11T18:57:16.736Z,81.82
2023-04-11T19:06:45.395Z,81.57
2023-04-11T19:13:02.972Z,81.75
2023-04-11T19:15:55.990Z,82.41
2023-04-11T19:18:22.738Z,82.18
2023-04-11T19:20:54.858Z,81.84
2023-04-11T19:23:27.929Z,82.01
2023-04-11T19:26:06.474Z,81.83
2023-04-11T19:28:48.959Z,81.93
2023-04-11T19:31:17.120Z,81.71
2023-04-11T19:34:10.895Z,81.93
2023-04-11T19:36:38.779Z,82.01
2023-04-11T19:39:37.305Z,81.95
2023-04-11T19:42:52.264Z,81.51
2023-04-11T19:45:45.904Z,81.82
2023-04-11T19:48:12.746Z,81.62
2023-04-11T19:50:40.895Z,82.13
2023-04-11T19:53:17.694Z,81.75
2023-04-11T19:55:53.846Z,82.09
2023-04-11T19:58:26.724Z,81.93
2023-04-11T20:00:59.751Z,82.21
2023-04-11T20:03:27.682Z,81.40
2023-04-11T20:05:55.164Z,81.54
2023-04-11T20:08:23.033Z,81.41
2023-04-11T20:10:51.980Z,81.04
2023-04-11T20:13:23.850Z,81.16
2023-04-11T20:15:51.254Z,81.31
2023-04-11T20:18:19.891Z,81.17
2023-04-11T20:20:49.454Z,81.32
2023-04-11T20:23:42.819Z,81.67
2023-04-11T20:26:10.888Z,81.69
2023-04-11T20:28:44.461Z,81.52
2023-04-11T20:31:12.737Z,81.39
2023-04-11T20:33:41.030Z,82.02
2023-04-11T20:36:35.925Z,82.57
2023-04-11T20:39:08.781Z,81.78
2023-04-11T20:41:40.578Z,82.15
2023-04-11T20:44:13.326Z,81.96
2023-04-11T20:46:41.908Z,81.71
2023-04-11T20:49:15.443Z,82.04
2023-04-11T20:51:43.675Z,82.18
2023-04-11T20:57:08.740Z,81.93
2023-04-11T20:59:39.395Z,82.27
2023-04-11T21:02:06.854Z,81.98
2023-04-11T21:04:34.843Z,82.23
2023-04-11T21:07:02.963Z,81.83
2023-04-11T21:09:30.687Z,81.39
2023-04-11T21:11:58.759Z,82.14
2023-04-11T21:14:26.700Z,82.29
2023-04-11T21:16:54.719Z,81.90
2023-04-11T21:22:45.154Z,82.25
2023-04-11T21:25:12.777Z,81.74
2023-04-11T21:28:09.770Z,81.84
2023-04-11T21:30:36.929Z,81.90
2023-04-11T21:33:04.842Z,81.82
2023-04-11T21:35:32.759Z,82.32
2023-04-11T21:38:00.845Z,82.33
2023-04-11T21:40:28.887Z,82.09
2023-04-11T21:42:56.758Z,82.09
2023-04-11T21:45:24.739Z,81.76
2023-04-11T21:47:52.929Z,81.62
2023-04-11T21:50:20.821Z,81.35
2023-04-11T21:52:48.846Z,81.92
2023-04-11T21:55:21.698Z,81.70
2023-04-11T21:57:55.588Z,81.79
2023-04-11T22:00:22.941Z,81.83
2023-04-11T22:02:51.131Z,82.16
2023-04-11T22:05:19.316Z,82.42
2023-04-11T22:07:46.837Z,82.65
2023-04-11T22:10:23.813Z,82.10
2023-04-11T22:12:58.557Z,82.29
2023-04-11T22:15:26.699Z,82.55
2023-04-11T22:18:26.181Z,82.21
2023-04-11T22:21:03.046Z,82.18
2023-04-11T22:23:34.690Z,82.93
2023-04-11T22:28:56.752Z,83.07
2023-04-11T22:34:24.321Z,82.63
2023-04-11T22:37:16.807Z,82.57
2023-04-11T22:39:50.185Z,82.23
2023-04-11T22:42:18.745Z,82.79
2023-04-11T22:44:50.710Z,82.73
2023-04-11T22:47:21.788Z,82.90
2023-04-11T22:49:48.661Z,83.01
2023-04-11T22:52:46.075Z,82.55
2023-04-11T22:55:17.800Z,82.68
2023-04-11T22:57:44.826Z,83.56
2023-04-11T23:00:17.020Z,82.90
2023-04-11T23:02:45.148Z,82.75
2023-04-11T23:05:12.672Z,83.18
2023-04-11T23:07:40.721Z,83.08
2023-04-11T23:10:10.565Z,83.10
2023-04-11T23:18:46.639Z,82.94
2023-04-11T23:21:18.765Z,82.52
2023-04-11T23:23:52.323Z,82.47
2023-04-11T23:26:27.543Z,82.69
2023-04-11T23:28:55.493Z,82.62
2023-04-11T23:31:23.081Z,82.61
2023-04-11T23:33:50.623Z,82.35
2023-04-11T23:36:18.701Z,82.63
2023-04-11T23:44:54.958Z,83.07
2023-04-11T23:47:51.951Z,83.52
2023-04-11T23:50:19.156Z,83.28
2023-04-11T23:52:47.468Z,83.74
2023-04-11T23:55:26.700Z,83.67
2023-04-11T23:57:58.672Z,85.03
